Time;durP1;ratioP1;P1;durP2;ratioP2;P2;SDS_P1;SDS_P2;PMS_P1;PMS_P2;Temp;Humidity;BMP_temperature;BMP_pressure;BME280_temperature;BME280_humidity;BME280_pressure;Samples;Min_cycle;Max_cycle;Signal;HPM_P1;HPM_P2
2023/01/01 00:00:09;;;;;;;;;2.00;1.00;;;;;17.40;30.95;100684.66;5057394;28;45468;-71
2023/01/01 00:02:34;;;;;;;;;2.00;0.67;;;;;17.48;31.10;100702.28;5058000;28;45275;-70
2023/01/01 00:05:00;;;;;;;;;0.33;0.00;;;;;17.49;30.96;100696.16;5056781;28;45893;-69
2023/01/01 00:07:25;;;;;;;;;0.33;0.33;;;;;17.50;31.05;100697.03;5057274;28;45481;-68
2023/01/01 00:12:35;;;;;;;;;1.00;1.00;;;;;17.55;30.95;100689.09;5045223;28;45465;-72
2023/01/01 00:15:01;;;;;;;;;1.00;1.00;;;;;17.56;30.81;100681.19;5056103;28;46172;-73
2023/01/01 00:17:28;;;;;;;;;3.00;2.00;;;;;17.57;30.72;100680.34;5056776;28;45477;-71
2023/01/01 00:19:53;;;;;;;;;3.33;3.33;;;;;17.52;30.87;100683.84;5057337;28;45246;-74
2023/01/01 00:22:19;;;;;;;;;0.00;0.00;;;;;17.49;30.94;100687.34;5057163;28;45405;-80
2023/01/01 00:24:44;;;;;;;;;1.00;1.00;;;;;17.52;30.94;100689.13;5056672;28;45615;-73
2023/01/01 00:27:10;;;;;;;;;1.00;1.00;;;;;17.51;30.97;100685.59;5057403;28;45592;-71
2023/01/01 00:29:35;;;;;;;;;0.00;0.00;;;;;17.54;30.79;100684.72;5056697;28;45370;-72
2023/01/01 00:32:01;;;;;;;;;1.00;1.00;;;;;17.52;30.75;100684.72;5056848;28;45660;-71
2023/01/01 00:34:26;;;;;;;;;0.67;0.67;;;;;17.57;30.39;100690.91;5056908;28;46066;-70
2023/01/01 00:36:52;;;;;;;;;0.00;0.00;;;;;17.56;30.33;100691.75;5058617;28;45236;-68
2023/01/01 00:39:17;;;;;;;;;1.00;1.00;;;;;17.55;30.47;100692.66;5058015;28;45398;-72
2023/01/01 00:41:43;;;;;;;;;1.00;1.00;;;;;17.54;30.49;100693.50;5039119;28;45486;-75
2023/01/01 00:44:08;;;;;;;;;1.33;0.00;;;;;17.55;30.39;100697.94;5056999;28;46151;-71
2023/01/01 00:46:34;;;;;;;;;2.00;1.00;;;;;17.58;30.19;100681.22;5054266;28;45265;-74
2023/01/01 00:48:59;;;;;;;;;3.00;1.00;;;;;17.57;30.29;100685.63;5055829;28;45385;-76
2023/01/01 00:51:25;;;;;;;;;5.00;3.00;;;;;17.54;30.35;100682.94;5056516;28;45687;-76
2023/01/01 00:53:51;;;;;;;;;1.33;0.33;;;;;17.49;30.17;100676.78;5057231;28;46052;-74
2023/01/01 00:56:16;;;;;;;;;1.00;0.00;;;;;17.55;30.04;100681.19;5056276;28;45596;-73
2023/01/01 00:58:42;;;;;;;;;0.67;0.67;;;;;17.05;30.31;100604.44;5056696;28;45431;-77
2023/01/01 01:01:07;;;;;;;;;1.00;1.00;;;;;17.43;30.30;100671.50;5056718;28;45217;-80
2023/01/01 01:03:33;;;;;;;;;1.00;1.00;;;;;17.15;30.61;100629.13;5049833;28;45545;-80
2023/01/01 01:05:58;;;;;;;;;2.00;1.00;;;;;17.39;30.37;100672.31;5055978;28;45514;-74
2023/01/01 01:08:25;;;;;;;;;1.33;1.00;;;;;17.35;30.39;100668.81;5055514;28;45481;-72
2023/01/01 01:10:51;;;;;;;;;2.00;1.00;;;;;17.32;30.56;100666.16;5056723;28;45629;-72
2023/01/01 01:13:16;;;;;;;;;1.67;1.00;;;;;17.23;30.42;100647.59;5054886;28;45407;-73
2023/01/01 01:15:42;;;;;;;;;3.33;2.00;;;;;17.32;30.50;100652.94;5056610;28;45495;-74
2023/01/01 01:18:08;;;;;;;;;2.33;2.33;;;;;17.26;30.45;100653.78;5055647;28;45347;-69
2023/01/01 01:20:33;;;;;;;;;1.33;1.00;;;;;17.27;30.53;100665.25;5056835;28;45905;-68
2023/01/01 01:22:59;;;;;;;;;1.00;1.00;;;;;17.28;30.57;100648.53;5055595;28;45592;-75
2023/01/01 01:25:25;;;;;;;;;1.33;1.33;;;;;17.28;30.60;100662.59;5056031;28;45547;-70
2023/01/01 01:27:50;;;;;;;;;2.00;2.00;;;;;17.23;30.28;100651.16;5055505;28;45407;-83
2023/01/01 01:30:16;;;;;;;;;3.00;3.00;;;;;17.22;30.53;100651.16;5056356;28;45381;-71
2023/01/01 01:32:41;;;;;;;;;0.00;0.00;;;;;17.26;30.39;100650.28;5056353;28;45879;-76
2023/01/01 01:35:07;;;;;;;;;1.00;1.00;;;;;17.25;30.46;100649.41;5056370;28;45485;-71
2023/01/01 01:37:32;;;;;;;;;1.67;1.67;;;;;17.19;30.64;100656.41;5055410;28;45528;-68
2023/01/01 01:39:58;;;;;;;;;0.33;0.33;;;;;17.19;30.26;100656.41;5055417;28;45373;-70
2023/01/01 01:42:23;;;;;;;;;0.67;0.00;;;;;17.17;30.56;100661.69;5056087;28;45383;-75
2023/01/01 01:44:49;;;;;;;;;1.00;1.00;;;;;17.12;30.42;100663.41;5055371;28;45593;-75
2023/01/01 01:47:27;;;;;;;;;1.00;0.00;;;;;16.99;30.53;100656.28;5055856;28;45610;-69
2023/01/01 01:50:07;;;;;;;;;1.67;1.33;;;;;17.01;30.42;100657.19;5055895;28;45356;-72
2023/01/01 01:52:36;;;;;;;;;1.67;1.67;;;;;17.04;30.73;100678.34;5036446;28;45446;-74
2023/01/01 01:55:03;;;;;;;;;0.67;0.67;;;;;17.07;30.48;100681.88;5052079;28;45533;-76
2023/01/01 01:57:30;;;;;;;;;1.00;1.00;;;;;17.02;30.54;100678.31;5055755;28;45510;-71
2023/01/01 01:59:56;;;;;;;;;1.00;1.00;;;;;17.06;30.46;100674.81;5058223;28;45488;-70
2023/01/01 02:02:35;;;;;;;;;5.00;3.00;;;;;17.07;30.48;100678.38;5039371;28;45996;-76
2023/01/01 02:05:02;;;;;;;;;1.67;1.00;;;;;17.08;30.26;100657.22;5048705;28;45491;-72
2023/01/01 02:07:30;;;;;;;;;1.00;1.00;;;;;17.05;30.20;100649.31;5059083;28;45513;-69
2023/01/01 02:09:57;;;;;;;;;2.00;2.00;;;;;17.22;29.59;100654.66;5058566;28;45234;-76
2023/01/01 02:12:24;;;;;;;;;0.00;0.00;;;;;17.20;30.25;100640.56;5058210;28;46177;-72
2023/01/01 02:14:50;;;;;;;;;1.00;0.67;;;;;16.98;30.11;100604.41;5059085;28;45500;-74
2023/01/01 02:17:38;;;;;;;;;1.00;1.00;;;;;17.02;30.05;100598.28;5059633;28;45782;-70
2023/01/01 02:20:04;;;;;;;;;0.00;0.00;;;;;17.26;29.89;100632.66;5043731;28;45449;-69
2023/01/01 02:22:35;;;;;;;;;1.00;0.67;;;;;17.27;29.82;100623.03;5050793;28;45996;-78
2023/01/01 02:25:27;;;;;;;;;2.67;1.33;;;;;17.25;29.85;100623.00;5059232;28;45498;-71
2023/01/01 02:28:22;;;;;;;;;1.00;1.00;;;;;17.28;29.62;100625.63;5058912;28;45575;-69
2023/01/01 02:30:50;;;;;;;;;1.00;1.00;;;;;17.28;29.70;100628.28;5058801;28;45387;-69
2023/01/01 02:33:22;;;;;;;;;1.00;0.00;;;;;17.29;29.74;100629.19;5058721;28;46361;-73
2023/01/01 02:35:53;;;;;;;;;1.00;0.00;;;;;17.22;29.96;100625.63;5032670;28;45458;-72
2023/01/01 02:38:34;;;;;;;;;0.67;0.33;;;;;16.99;29.88;100585.94;5052186;28;45460;-72
2023/01/01 02:41:09;;;;;;;;;1.33;1.00;;;;;17.24;29.99;100620.34;5059292;28;45452;-80
2023/01/01 02:43:35;;;;;;;;;1.00;1.00;;;;;17.21;29.59;100618.59;5058632;28;46078;-73
2023/01/01 02:46:05;;;;;;;;;0.00;0.00;;;;;17.27;29.79;100633.59;5058713;28;45382;-69
2023/01/01 02:48:43;;;;;;;;;1.33;1.00;;;;;17.24;29.79;100629.16;5057926;28;45503;-69
2023/01/01 02:51:30;;;;;;;;;1.00;0.67;;;;;17.23;29.84;100632.69;5058542;28;45822;-74
2023/01/01 02:54:01;;;;;;;;;2.00;1.00;;;;;17.19;29.85;100620.34;5044946;28;46695;-71
2023/01/01 02:56:47;;;;;;;;;1.00;0.00;;;;;17.16;29.95;100612.41;5058527;28;45491;-79
2023/01/01 03:02:26;;;;;;;;;1.33;1.00;;;;;17.20;30.05;100597.47;5068701;28;45219;-73
2023/01/01 03:05:06;;;;;;;;;0.00;0.00;;;;;17.22;30.05;100585.16;5057968;28;45412;-71
2023/01/01 03:07:42;;;;;;;;;0.00;0.00;;;;;17.22;30.00;100593.94;5044601;28;45399;-70
2023/01/01 03:10:17;;;;;;;;;2.33;1.00;;;;;17.19;30.00;100578.09;5057673;28;45256;-70
2023/01/01 03:12:51;;;;;;;;;1.00;1.00;;;;;17.11;30.08;100569.28;5058062;28;45522;-77
2023/01/01 03:15:19;;;;;;;;;0.33;0.33;;;;;17.24;29.90;100580.75;5058538;28;46222;-68
2023/01/01 03:17:58;;;;;;;;;2.00;0.00;;;;;17.25;29.91;100567.56;5058269;28;45427;-70
2023/01/01 03:20:28;;;;;;;;;1.67;0.67;;;;;17.34;29.60;100566.69;5058028;28;45215;-71
2023/01/01 03:23:01;;;;;;;;;1.00;0.00;;;;;17.32;29.56;100562.28;5058617;28;45716;-72
2023/01/01 03:25:31;;;;;;;;;2.00;0.00;;;;;17.38;29.57;100546.47;5058164;28;46263;-74
2023/01/01 03:28:11;;;;;;;;;1.00;1.00;;;;;17.41;29.58;100551.78;5058086;28;45325;-73
2023/01/01 03:30:40;;;;;;;;;1.00;1.00;;;;;17.35;29.72;100563.19;5058625;28;45383;-70
2023/01/01 03:33:15;;;;;;;;;1.00;1.00;;;;;17.35;29.80;100552.63;5058196;28;45649;-73
2023/01/01 03:35:58;;;;;;;;;1.00;1.00;;;;;17.33;29.77;100540.28;5058158;28;46204;-76
2023/01/01 03:38:56;;;;;;;;;0.67;0.67;;;;;17.33;29.81;100556.13;5057898;28;45315;-72
2023/01/01 03:41:44;;;;;;;;;1.33;1.00;;;;;17.24;29.78;100560.50;5058184;28;45404;-70
2023/01/01 03:44:29;;;;;;;;;1.00;1.00;;;;;17.15;29.73;100546.41;5057671;28;45615;-72
2023/01/01 03:46:55;;;;;;;;;3.00;1.00;;;;;17.21;29.70;100547.31;5056549;28;45409;-71
2023/01/01 03:49:22;;;;;;;;;1.00;1.00;;;;;17.23;29.86;100547.28;5057791;28;45404;-71
2023/01/01 03:52:32;;;;;;;;;1.00;1.00;;;;;17.32;29.77;100555.25;5057030;28;45381;-70
2023/01/01 03:55:03;;;;;;;;;1.00;1.00;;;;;17.26;29.85;100560.50;4978793;28;45509;-72
2023/01/01 03:57:42;;;;;;;;;1.00;1.00;;;;;17.32;29.56;100547.31;5059054;28;46233;-70
2023/01/01 04:00:18;;;;;;;;;1.00;0.33;;;;;17.37;29.52;100540.31;5059040;28;45603;-72
2023/01/01 04:02:44;;;;;;;;;1.00;1.00;;;;;17.42;29.63;100549.09;5057357;28;45221;-76
2023/01/01 04:05:11;;;;;;;;;3.00;1.67;;;;;17.45;29.54;100542.97;5057679;28;45339;-72
2023/01/01 04:07:38;;;;;;;;;1.67;1.00;;;;;17.45;29.49;100541.19;5056417;28;46195;-68
2023/01/01 04:10:15;;;;;;;;;2.00;1.00;;;;;17.53;29.40;100542.97;5057209;28;45968;-68
2023/01/01 04:13:02;;;;;;;;;1.00;1.00;;;;;17.57;29.24;100537.69;5057503;28;45501;-67
2023/01/01 04:15:28;;;;;;;;;1.00;1.00;;;;;17.57;29.31;100542.09;5059775;28;45251;-69
2023/01/01 04:17:53;;;;;;;;;0.33;0.33;;;;;17.62;28.99;100528.00;5058162;28;45374;-70
2023/01/01 04:20:20;;;;;;;;;1.00;1.00;;;;;17.68;28.63;100537.69;5056948;28;45255;-68
2023/01/01 04:22:46;;;;;;;;;1.00;1.00;;;;;17.63;28.96;100536.84;5057262;28;45689;-76
2023/01/01 04:25:13;;;;;;;;;1.00;0.67;;;;;17.64;28.70;100539.44;5057510;28;45414;-68
2023/01/01 04:27:40;;;;;;;;;3.00;1.00;;;;;17.66;28.81;100553.53;5056832;28;46324;-71
2023/01/01 04:30:07;;;;;;;;;1.00;1.00;;;;;17.54;28.99;100540.31;5056917;28;46626;-72
2023/01/01 04:32:33;;;;;;;;;1.00;0.67;;;;;17.61;28.69;100557.09;5057179;28;45307;-69
2023/01/01 04:34:59;;;;;;;;;0.67;0.00;;;;;17.64;28.68;100557.94;5056433;28;45484;-69
2023/01/01 04:37:24;;;;;;;;;1.00;0.00;;;;;17.53;28.96;100551.78;5057225;28;46019;-73
2023/01/01 04:39:51;;;;;;;;;1.00;0.67;;;;;17.47;29.15;100560.56;5057422;28;45320;-75
2023/01/01 04:42:16;;;;;;;;;1.00;1.00;;;;;17.42;29.29;100551.75;5056966;28;45406;-69
2023/01/01 04:44:42;;;;;;;;;0.67;0.33;;;;;17.41;29.32;100546.50;5056181;28;45516;-70
2023/01/01 04:47:08;;;;;;;;;1.67;1.00;;;;;17.39;29.24;100537.66;5055832;28;46044;-76
2023/01/01 04:49:33;;;;;;;;;1.00;1.00;;;;;17.32;29.30;100544.69;5056471;28;45544;-72
2023/01/01 04:51:59;;;;;;;;;1.00;1.00;;;;;17.31;29.28;100535.03;5056619;28;45211;-71
2023/01/01 04:54:24;;;;;;;;;1.33;0.67;;;;;17.37;28.88;100544.69;5056381;28;46147;-70
2023/01/01 04:56:50;;;;;;;;;1.67;1.00;;;;;17.34;29.25;100549.97;5056413;28;46088;-68
2023/01/01 04:59:15;;;;;;;;;1.00;0.67;;;;;17.25;29.51;100535.88;5056594;28;45236;-70
2023/01/01 05:01:41;;;;;;;;;0.00;0.00;;;;;17.24;29.18;100531.47;5056999;28;45719;-70
2023/01/01 05:04:06;;;;;;;;;2.33;2.33;;;;;17.25;29.57;100540.28;5056975;28;45248;-68
2023/01/01 05:06:32;;;;;;;;;1.00;1.00;;;;;17.20;29.25;100545.53;5055818;28;45666;-70
2023/01/01 05:08:59;;;;;;;;;1.33;0.67;;;;;17.23;29.30;100527.06;5055848;28;45677;-70
2023/01/01 05:11:29;;;;;;;;;1.00;1.00;;;;;17.24;29.24;100536.75;5056882;28;45519;-72
2023/01/01 05:13:58;;;;;;;;;1.00;1.00;;;;;17.23;29.15;100539.38;5057060;28;45380;-72
2023/01/01 05:16:27;;;;;;;;;1.00;0.67;;;;;17.20;29.40;100531.47;5056678;28;45537;-71
2023/01/01 05:18:53;;;;;;;;;1.00;1.00;;;;;17.14;29.43;100532.31;5056152;28;45352;-68
2023/01/01 05:21:24;;;;;;;;;1.00;0.00;;;;;17.15;29.39;100528.81;5056435;28;45532;-69
2023/01/01 05:23:55;;;;;;;;;0.67;0.67;;;;;17.13;29.43;100525.28;5056659;28;45312;-76
2023/01/01 05:26:23;;;;;;;;;2.00;1.33;;;;;17.16;29.35;100535.84;5040113;28;45945;-70
2023/01/01 05:28:49;;;;;;;;;0.00;0.00;;;;;17.20;29.30;100527.06;5056184;28;45359;-72
2023/01/01 05:31:20;;;;;;;;;1.00;1.00;;;;;17.22;29.16;100512.09;5056421;28;45509;-69
2023/01/01 05:33:46;;;;;;;;;1.00;1.00;;;;;17.24;29.36;100505.06;5057306;28;45216;-73
2023/01/01 05:36:18;;;;;;;;;1.00;0.67;;;;;17.26;29.29;100510.34;5058809;28;47836;-71
2023/01/01 05:38:44;;;;;;;;;1.00;1.00;;;;;17.18;29.34;100499.78;5059703;28;45465;-73
2023/01/01 05:41:12;;;;;;;;;0.00;0.00;;;;;17.10;29.27;100483.91;5059963;28;45265;-71
2023/01/01 05:43:37;;;;;;;;;1.00;1.00;;;;;17.22;29.33;100498.03;5060011;28;45435;-75
2023/01/01 05:46:06;;;;;;;;;2.00;0.00;;;;;17.24;29.63;100510.34;5058543;28;46080;-71
2023/01/01 05:48:35;;;;;;;;;1.33;1.00;;;;;17.24;29.76;100512.09;5059614;28;45523;-68
2023/01/01 05:51:05;;;;;;;;;1.00;1.00;;;;;17.24;29.66;100518.25;5059803;28;45355;-67
2023/01/01 05:53:31;;;;;;;;;1.00;0.00;;;;;17.26;29.77;100502.44;5059371;28;45444;-77
2023/01/01 05:55:57;;;;;;;;;0.00;0.00;;;;;17.25;29.93;100512.13;5059867;28;46148;-79
2023/01/01 05:58:23;;;;;;;;;1.00;1.00;;;;;17.15;30.10;100518.25;5059592;28;45244;-81
2023/01/01 06:00:48;;;;;;;;;1.00;1.00;;;;;17.06;30.22;100523.50;5058924;28;45438;-76
2023/01/01 06:03:14;;;;;;;;;1.00;1.00;;;;;17.01;30.35;100528.78;5059694;28;45389;-68
2023/01/01 06:05:39;;;;;;;;;0.00;0.00;;;;;17.01;30.66;100522.59;5043597;28;45390;-73
2023/01/01 06:08:05;;;;;;;;;2.00;1.00;;;;;16.88;30.54;100506.72;5059648;28;45504;-73
2023/01/01 06:10:30;;;;;;;;;1.00;1.00;;;;;17.02;30.63;100530.53;5058685;28;45448;-70
2023/01/01 06:12:57;;;;;;;;;1.67;1.00;;;;;16.92;30.86;100515.53;5060234;28;45256;-71
2023/01/01 06:15:24;;;;;;;;;0.00;0.00;;;;;17.04;30.79;100519.97;5059143;28;45967;-71
2023/01/01 06:17:49;;;;;;;;;0.33;0.33;;;;;16.87;30.89;100497.06;5059179;28;45189;-75
2023/01/01 06:20:15;;;;;;;;;4.33;4.00;;;;;17.05;30.53;100513.81;5058432;28;45227;-70
2023/01/01 06:22:41;;;;;;;;;3.00;2.00;;;;;16.99;30.96;100505.88;5059232;28;45366;-70
2023/01/01 06:25:07;;;;;;;;;3.00;2.00;;;;;16.95;31.18;100522.56;5058397;28;46012;-72
2023/01/01 06:27:34;;;;;;;;;1.00;1.00;;;;;16.94;30.87;100520.84;5059542;28;45451;-71
2023/01/01 06:29:59;;;;;;;;;3.33;3.00;;;;;16.91;31.08;100521.72;5058516;28;45517;-70
2023/01/01 06:32:25;;;;;;;;;1.67;1.00;;;;;16.88;31.31;100513.78;5059253;28;45351;-74
2023/01/01 06:34:50;;;;;;;;;1.00;1.00;;;;;16.86;31.24;100516.41;5058194;28;46258;-71
2023/01/01 06:37:16;;;;;;;;;3.00;2.00;;;;;16.82;31.41;100525.19;5058657;28;45649;-75
2023/01/01 06:39:41;;;;;;;;;0.33;0.33;;;;;16.78;31.59;100525.13;5058569;28;45519;-71
2023/01/01 06:42:07;;;;;;;;;1.00;1.00;;;;;16.76;31.52;100522.47;5059063;28;45483;-70
2023/01/01 06:44:32;;;;;;;;;1.67;1.00;;;;;16.73;31.54;100517.19;5057951;28;45938;-68
2023/01/01 06:46:58;;;;;;;;;2.00;1.00;;;;;16.76;31.59;100511.06;5058674;28;45422;-70
2023/01/01 06:49:23;;;;;;;;;2.00;1.33;;;;;16.88;31.22;100508.50;5058500;28;45435;-70
2023/01/01 06:51:49;;;;;;;;;4.33;2.33;;;;;16.84;31.43;100522.56;5059334;28;45343;-68
2023/01/01 06:54:14;;;;;;;;;3.00;2.33;;;;;16.79;31.77;100534.78;5058860;28;45389;-73
2023/01/01 06:56:40;;;;;;;;;3.00;3.00;;;;;16.71;31.84;100537.38;5058184;28;45307;-69
2023/01/01 06:59:05;;;;;;;;;2.00;2.00;;;;;16.60;32.20;100531.19;5058859;28;45637;-70
2023/01/01 07:01:34;;;;;;;;;2.33;1.00;;;;;16.60;32.03;100542.63;5059491;28;45281;-68
2023/01/01 07:04:09;;;;;;;;;2.00;1.67;;;;;16.55;32.29;100549.63;5059174;28;46017;-70
2023/01/01 07:06:35;;;;;;;;;3.67;2.33;;;;;16.39;32.49;100526.69;5043249;28;45506;-74
2023/01/01 07:09:01;;;;;;;;;6.00;4.00;;;;;16.46;32.36;100541.69;5058585;28;45549;-69
2023/01/01 07:11:27;;;;;;;;;11.67;8.67;;;;;16.45;32.14;100538.16;5059020;28;45623;-72
2023/01/01 07:13:53;;;;;;;;;11.00;9.00;;;;;16.46;32.46;100546.94;5058590;28;45934;-73
2023/01/01 07:16:19;;;;;;;;;5.67;5.00;;;;;16.45;32.36;100546.06;5059893;28;45477;-70
2023/01/01 07:18:45;;;;;;;;;5.00;5.00;;;;;16.46;32.28;100553.09;5058544;28;45296;-72
2023/01/01 07:21:53;;;;;;;;;4.33;3.67;;;;;16.45;32.20;100550.44;5058143;28;46452;-71
2023/01/01 07:24:20;;;;;;;;;3.00;1.00;;;;;16.45;32.36;100540.81;4976016;28;46167;-71
2023/01/01 07:26:46;;;;;;;;;5.67;5.00;;;;;16.25;32.46;100522.22;5045247;28;45322;-69
2023/01/01 07:29:12;;;;;;;;;2.00;2.00;;;;;16.46;31.91;100537.28;5059116;28;45498;-71
2023/01/01 07:31:40;;;;;;;;;2.33;1.33;;;;;16.56;31.91;100526.78;5058943;28;45447;-69
2023/01/01 07:34:06;;;;;;;;;3.00;3.00;;;;;16.46;31.85;100510.91;5058037;28;45450;-69
2023/01/01 07:36:33;;;;;;;;;2.00;1.67;;;;;16.69;31.47;100529.50;5058475;28;45398;-77
2023/01/01 07:38:58;;;;;;;;;2.00;2.00;;;;;16.70;31.64;100517.19;5058782;28;45406;-69
2023/01/01 07:41:24;;;;;;;;;4.33;3.00;;;;;16.59;31.42;100487.22;5058677;28;45508;-72
2023/01/01 07:43:49;;;;;;;;;3.33;2.00;;;;;16.72;31.35;100506.66;5057691;28;45671;-76
2023/01/01 07:46:17;;;;;;;;;2.33;2.33;;;;;16.80;31.46;100512.81;5058132;28;45653;-71
2023/01/01 07:48:43;;;;;;;;;3.00;2.00;;;;;16.94;31.46;100526.09;5058055;28;45495;-69
2023/01/01 07:51:08;;;;;;;;;4.00;3.00;;;;;16.97;31.58;100529.66;5058253;28;45517;-70
2023/01/01 07:53:34;;;;;;;;;2.67;2.00;;;;;17.04;31.38;100525.25;5058114;28;45300;-74
2023/01/01 07:55:59;;;;;;;;;2.33;0.33;;;;;17.05;31.15;100511.16;5057397;28;45323;-71
2023/01/01 07:58:25;;;;;;;;;3.67;3.00;;;;;17.06;31.54;100512.94;5056818;28;45437;-81
2023/01/01 08:00:50;;;;;;;;;1.33;1.00;;;;;17.04;31.38;100501.50;5057809;28;45338;-75
2023/01/01 08:03:16;;;;;;;;;2.00;2.00;;;;;17.14;31.44;100507.69;5057255;28;45532;-75
2023/01/01 08:05:42;;;;;;;;;5.33;3.00;;;;;17.03;31.48;100481.25;5057571;28;45391;-69
2023/01/01 08:08:08;;;;;;;;;4.00;2.00;;;;;17.15;30.95;100481.31;5038891;28;45552;-72
2023/01/01 08:10:34;;;;;;;;;2.00;2.00;;;;;17.24;30.99;100483.94;5057454;28;45560;-70
2023/01/01 08:13:01;;;;;;;;;1.00;1.00;;;;;17.37;30.96;100499.78;5056986;28;45522;-77
2023/01/01 08:15:27;;;;;;;;;1.00;1.00;;;;;17.44;30.88;100493.66;5057444;28;45373;-81
2023/01/01 08:18:00;;;;;;;;;3.33;2.00;;;;;17.66;30.34;100484.84;5059820;28;45348;-72
2023/01/01 08:20:27;;;;;;;;;1.00;1.00;;;;;17.81;29.99;100469.91;5047517;28;45272;-77
2023/01/01 08:22:52;;;;;;;;;1.00;1.00;;;;;17.92;29.83;100444.34;5057499;28;45498;-83
2023/01/01 08:25:18;;;;;;;;;1.00;1.00;;;;;18.02;29.79;100446.09;5059685;28;45696;-76
2023/01/01 08:27:43;;;;;;;;;2.00;1.00;;;;;18.12;29.64;100468.09;5058456;28;45323;-78
2023/01/01 08:30:11;;;;;;;;;2.00;2.00;;;;;18.16;29.59;100476.91;5058738;28;45150;-68
2023/01/01 08:32:37;;;;;;;;;0.67;0.33;;;;;18.22;29.36;100467.22;5059187;28;45494;-73
2023/01/01 08:35:03;;;;;;;;;0.67;0.67;;;;;18.27;29.48;100468.06;5059648;28;45438;-83
2023/01/01 08:37:29;;;;;;;;;2.00;1.67;;;;;18.38;29.33;100461.88;5058916;28;45457;-71
2023/01/01 08:39:54;;;;;;;;;1.00;1.00;;;;;18.45;29.04;100461.84;5057361;28;45518;-77
2023/01/01 08:42:20;;;;;;;;;3.00;1.00;;;;;18.58;28.88;100465.34;5057337;28;46179;-70
2023/01/01 08:44:46;;;;;;;;;0.00;0.00;;;;;18.70;28.96;100467.00;5056945;28;45716;-82
2023/01/01 08:47:19;;;;;;;;;0.33;0.33;;;;;18.81;28.84;100464.38;5055876;28;45479;-71
2023/01/01 08:49:44;;;;;;;;;1.67;1.33;;;;;18.92;28.56;100462.56;5057201;28;45444;-72
2023/01/01 08:52:10;;;;;;;;;0.00;0.00;;;;;19.01;28.25;100481.00;5056815;28;45987;-69
2023/01/01 08:54:35;;;;;;;;;1.67;1.00;;;;;19.08;28.61;100471.28;5057924;28;45401;-72
2023/01/01 08:57:01;;;;;;;;;1.33;0.67;;;;;19.17;27.98;100468.56;5056083;28;45316;-69
2023/01/01 08:59:26;;;;;;;;;1.00;1.00;;;;;19.25;27.96;100461.44;5042930;28;45225;-73
2023/01/01 09:01:51;;;;;;;;;1.00;1.00;;;;;19.30;28.01;100479.97;5059659;28;45486;-68
2023/01/01 09:04:17;;;;;;;;;1.00;1.00;;;;;19.37;27.61;100483.44;5056668;28;45398;-67
2023/01/01 09:06:42;;;;;;;;;0.67;0.67;;;;;19.41;27.81;100458.69;5056201;28;45510;-71
2023/01/01 09:09:08;;;;;;;;;1.00;1.00;;;;;19.39;27.81;100463.13;5056237;28;45477;-71
2023/01/01 09:11:33;;;;;;;;;1.00;0.33;;;;;19.46;27.86;100486.91;5056717;28;46007;-73
2023/01/01 09:13:59;;;;;;;;;2.00;1.33;;;;;19.42;27.40;100452.50;5047989;28;45361;-80
2023/01/01 09:16:25;;;;;;;;;1.33;1.00;;;;;19.43;27.60;100441.88;5048982;28;45434;-73
2023/01/01 09:18:50;;;;;;;;;1.00;1.00;;;;;19.74;27.50;100454.91;5056345;28;45486;-77
2023/01/01 09:21:16;;;;;;;;;2.00;2.00;;;;;19.82;27.33;100468.09;5037592;28;45917;-68
2023/01/01 09:23:41;;;;;;;;;3.00;1.00;;;;;19.92;27.27;100455.63;5052585;28;45542;-76
2023/01/01 09:26:08;;;;;;;;;0.00;0.00;;;;;20.05;27.14;100431.63;5056736;28;45407;-82
2023/01/01 09:28:35;;;;;;;;;0.33;0.33;;;;;20.32;26.95;100428.69;5056791;28;45426;-83
2023/01/01 09:31:01;;;;;;;;;0.33;0.33;;;;;21.02;26.40;100425.09;5056238;28;45390;-84
2023/01/01 09:33:27;;;;;;;;;1.00;1.00;;;;;21.56;25.42;100410.09;5055209;28;45561;-81
2023/01/01 09:35:53;;;;;;;;;1.67;1.67;;;;;21.95;25.68;100405.84;5039785;28;45585;-83
2023/01/01 09:38:19;;;;;;;;;2.00;1.00;;;;;22.23;24.95;100398.19;5056083;28;45479;-72
2023/01/01 09:41:14;;;;;;;;;1.33;1.00;;;;;22.46;25.06;100407.50;5055982;28;46158;-83
2023/01/01 09:44:01;;;;;;;;;0.67;0.67;;;;;22.62;24.94;100432.91;5055625;28;45529;-83
2023/01/01 09:46:27;;;;;;;;;2.00;1.00;;;;;22.88;24.71;100426.13;5056146;28;45469;-84
2023/01/01 09:49:02;;;;;;;;;1.00;1.00;;;;;22.90;24.69;100404.75;5056064;28;45520;-84
2023/01/01 09:51:33;;;;;;;;;1.00;1.00;;;;;23.22;24.41;100426.22;5055360;28;45389;-72
2023/01/01 09:54:02;;;;;;;;;1.00;0.00;;;;;23.26;24.35;100418.16;5055788;28;45325;-74
2023/01/01 09:56:29;;;;;;;;;1.00;0.67;;;;;23.16;23.86;100391.75;5055606;28;45524;-83
2023/01/01 09:58:58;;;;;;;;;2.00;1.00;;;;;23.30;23.94;100430.47;5055563;28;45398;-84
2023/01/01 10:01:55;;;;;;;;;1.00;1.00;;;;;23.32;24.18;100426.88;5055502;28;45458;-76
2023/01/01 10:04:53;;;;;;;;;1.00;1.00;;;;;23.30;24.07;100412.72;5055381;28;45178;-68
2023/01/01 10:07:37;;;;;;;;;1.00;1.00;;;;;23.16;24.63;100406.88;5030978;28;45436;-75
2023/01/01 10:10:21;;;;;;;;;1.00;1.00;;;;;22.99;23.98;100409.88;5054743;28;45652;-69
2023/01/01 10:13:14;;;;;;;;;1.00;1.00;;;;;22.77;24.46;100391.72;5056062;28;45453;-70
2023/01/01 10:15:52;;;;;;;;;1.00;1.00;;;;;22.55;24.84;100401.97;5056450;28;45590;-71
2023/01/01 10:18:22;;;;;;;;;1.00;1.00;;;;;22.48;24.75;100384.38;5041632;28;45385;-69
2023/01/01 10:21:04;;;;;;;;;1.67;1.00;;;;;22.32;25.30;100389.19;5058392;28;45417;-68
2023/01/01 10:23:40;;;;;;;;;1.00;1.00;;;;;22.27;24.74;100366.25;5058352;28;45383;-72
2023/01/01 10:26:16;;;;;;;;;1.00;1.00;;;;;22.44;24.78;100366.72;5059133;28;45347;-75
2023/01/01 10:29:01;;;;;;;;;0.33;0.33;;;;;22.53;24.76;100379.84;5058741;28;45359;-72
2023/01/01 10:31:29;;;;;;;;;2.00;1.33;;;;;22.59;24.66;100386.81;5058773;28;45419;-68
2023/01/01 10:33:55;;;;;;;;;1.00;1.00;;;;;22.58;24.75;100369.09;5058781;28;45767;-77
2023/01/01 10:36:21;;;;;;;;;1.67;1.00;;;;;22.53;25.01;100360.34;5059102;28;45588;-78
2023/01/01 10:38:48;;;;;;;;;2.00;1.00;;;;;22.56;25.11;100354.94;5059311;28;45383;-83
2023/01/01 10:41:16;;;;;;;;;1.00;1.00;;;;;22.52;25.32;100362.13;5059132;28;45350;-78
2023/01/01 10:43:43;;;;;;;;;1.33;1.33;;;;;22.57;25.61;100354.91;5059158;28;46088;-75
2023/01/01 10:46:15;;;;;;;;;2.00;1.67;;;;;22.63;25.15;100352.09;5058125;28;45365;-76
2023/01/01 10:49:04;;;;;;;;;1.67;1.00;;;;;22.63;25.92;100348.56;5058138;28;45337;-73
2023/01/01 10:51:30;;;;;;;;;1.00;1.00;;;;;22.77;25.54;100353.56;5059100;28;45410;-74
2023/01/01 10:53:56;;;;;;;;;1.00;1.00;;;;;22.97;25.99;100353.97;5058474;28;45220;-71
2023/01/01 10:56:23;;;;;;;;;2.00;2.00;;;;;23.09;25.87;100341.31;5058636;28;45473;-75
2023/01/01 10:58:58;;;;;;;;;1.67;1.67;;;;;23.18;25.01;100315.31;5058582;28;45482;-83
2023/01/01 11:01:29;;;;;;;;;1.00;1.00;;;;;23.27;25.05;100313.31;5058500;28;45350;-76
2023/01/01 11:04:00;;;;;;;;;1.33;1.00;;;;;23.35;25.27;100305.97;5058267;28;45507;-71
2023/01/01 11:06:34;;;;;;;;;1.67;1.67;;;;;23.59;24.61;100305.31;5058269;28;45436;-81
2023/01/01 11:09:02;;;;;;;;;1.00;1.00;;;;;23.49;24.83;100287.81;5058128;28;45418;-79
2023/01/01 11:11:31;;;;;;;;;2.33;2.00;;;;;23.77;24.65;100303.06;5057984;28;45394;-83
2023/01/01 11:14:05;;;;;;;;;1.00;1.00;;;;;23.90;24.73;100288.47;5057192;28;45465;-82
2023/01/01 11:16:31;;;;;;;;;1.00;1.00;;;;;23.98;24.16;100291.81;5058025;28;45297;-70
2023/01/01 11:19:03;;;;;;;;;3.00;2.00;;;;;23.94;24.15;100284.81;5058066;28;45414;-83
2023/01/01 11:21:29;;;;;;;;;1.00;1.00;;;;;23.89;24.46;100276.03;5057579;28;45805;-74
2023/01/01 11:24:18;;;;;;;;;1.67;1.00;;;;;23.79;24.91;100270.09;5057930;28;45974;-75
2023/01/01 11:26:44;;;;;;;;;0.33;0.00;;;;;23.84;24.84;100269.13;5063116;28;45362;-69
2023/01/01 11:29:15;;;;;;;;;2.67;1.67;;;;;24.01;24.32;100280.16;5058391;28;45435;-76
2023/01/01 11:31:44;;;;;;;;;2.00;2.00;;;;;24.05;24.43;100259.59;5057801;28;45438;-74
2023/01/01 11:34:34;;;;;;;;;0.67;0.00;;;;;24.19;24.10;100266.28;5040976;28;45661;-73
2023/01/01 11:37:22;;;;;;;;;1.00;1.00;;;;;24.26;24.06;100277.63;5062417;28;45466;-71
2023/01/01 11:39:51;;;;;;;;;2.00;1.00;;;;;24.16;24.42;100268.16;5061328;28;45492;-78